Terminal Aerodrome Forecast
Issued by NWS

Home | Current Version | Previous Version | Text Only | Print | Product List | Glossary On
Versions: 1 2 3 4 5 6 7 8 9 10 11 12 13 14 15 16 17 18 19
529
FTUS46 KSTO 200539
TAFSAC
TAF
KSAC 200539Z 2006/2106 15015G20KT P6SM VCSH OVC035
     FM201000 15021G30KT 5SM RA OVC015
     FM202300 17022G30KT 4SM RA OVC015
      TEMPO 2103/2106 17030G40KT=

USA.gov is the U.S. government's official web portal to all federal, state and local government web resources and services.